sensor_id;sensor_type;location;lat;lon;timestamp;P1;durP1;ratioP1;P2;durP2;ratioP2
63203;SDS011;49297;43.210;27.914;2022-09-03T00:00:32;8.52;;;4.97;;
63203;SDS011;49297;43.210;27.914;2022-09-03T00:03:16;9.82;;;5.70;;
63203;SDS011;49297;43.210;27.914;2022-09-03T00:05:48;8.85;;;6.20;;
63203;SDS011;49297;43.210;27.914;2022-09-03T00:08:22;10.48;;;5.30;;
63203;SDS011;49297;43.210;27.914;2022-09-03T00:11:00;10.27;;;4.43;;
63203;SDS011;49297;43.210;27.914;2022-09-03T00:13:36;7.78;;;6.03;;
63203;SDS011;49297;43.210;27.914;2022-09-03T00:16:08;18.15;;;5.57;;
63203;SDS011;49297;43.210;27.914;2022-09-03T00:18:45;6.70;;;4.93;;
63203;SDS011;49297;43.210;27.914;2022-09-03T00:22:02;8.07;;;5.40;;
63203;SDS011;49297;43.210;27.914;2022-09-03T00:24:09;8.00;;;4.85;;
63203;SDS011;49297;43.210;27.914;2022-09-03T00:26:38;6.88;;;4.70;;
63203;SDS011;49297;43.210;27.914;2022-09-03T00:29:17;8.60;;;5.40;;
63203;SDS011;49297;43.210;27.914;2022-09-03T00:31:58;10.18;;;5.10;;
63203;SDS011;49297;43.210;27.914;2022-09-03T00:34:37;9.30;;;4.43;;
63203;SDS011;49297;43.210;27.914;2022-09-03T00:37:24;6.28;;;4.13;;
63203;SDS011;49297;43.210;27.914;2022-09-03T00:39:51;13.30;;;4.88;;
63203;SDS011;49297;43.210;27.914;2022-09-03T00:43:03;7.30;;;4.70;;
63203;SDS011;49297;43.210;27.914;2022-09-03T00:45:31;6.82;;;3.58;;
63203;SDS011;49297;43.210;27.914;2022-09-03T01:07:40;7.72;;;5.25;;
63203;SDS011;49297;43.210;27.914;2022-09-03T01:13:00;11.20;;;5.07;;
63203;SDS011;49297;43.210;27.914;2022-09-03T01:16:42;8.00;;;6.13;;
63203;SDS011;49297;43.210;27.914;2022-09-03T01:30:57;6.55;;;4.70;;
63203;SDS011;49297;43.210;27.914;2022-09-03T01:33:42;6.72;;;4.03;;
63203;SDS011;49297;43.210;27.914;2022-09-03T01:36:32;6.70;;;5.25;;
63203;SDS011;49297;43.210;27.914;2022-09-03T01:39:11;6.20;;;4.65;;
63203;SDS011;49297;43.210;27.914;2022-09-03T01:42:03;11.80;;;5.22;;
63203;SDS011;49297;43.210;27.914;2022-09-03T01:45:31;6.63;;;4.35;;
63203;SDS011;49297;43.210;27.914;2022-09-03T01:50:51;6.53;;;4.07;;
63203;SDS011;49297;43.210;27.914;2022-09-03T02:02:21;4.97;;;3.42;;
63203;SDS011;49297;43.210;27.914;2022-09-03T02:07:28;3.85;;;3.17;;
63203;SDS011;49297;43.210;27.914;2022-09-03T02:09:58;4.60;;;3.33;;
63203;SDS011;49297;43.210;27.914;2022-09-03T02:12:25;2.40;;;2.20;;
63203;SDS011;49297;43.210;27.914;2022-09-03T02:14:57;3.83;;;2.58;;
63203;SDS011;49297;43.210;27.914;2022-09-03T02:17:26;4.03;;;2.17;;
63203;SDS011;49297;43.210;27.914;2022-09-03T02:19:52;2.92;;;2.72;;
63203;SDS011;49297;43.210;27.914;2022-09-03T02:22:17;4.32;;;2.80;;
63203;SDS011;49297;43.210;27.914;2022-09-03T02:24:43;2.67;;;2.47;;
63203;SDS011;49297;43.210;27.914;2022-09-03T02:27:10;3.53;;;2.78;;
63203;SDS011;49297;43.210;27.914;2022-09-03T02:29:35;2.80;;;2.60;;
63203;SDS011;49297;43.210;27.914;2022-09-03T02:32:01;4.13;;;2.15;;
63203;SDS011;49297;43.210;27.914;2022-09-03T02:34:28;2.80;;;2.13;;
63203;SDS011;49297;43.210;27.914;2022-09-03T02:36:54;4.32;;;3.50;;
63203;SDS011;49297;43.210;27.914;2022-09-03T02:39:20;3.42;;;2.67;;
63203;SDS011;49297;43.210;27.914;2022-09-03T02:41:49;3.25;;;2.95;;
63203;SDS011;49297;43.210;27.914;2022-09-03T02:44:29;3.65;;;2.97;;
63203;SDS011;49297;43.210;27.914;2022-09-03T02:46:59;5.70;;;3.13;;
63203;SDS011;49297;43.210;27.914;2022-09-03T02:49:27;6.00;;;3.30;;
63203;SDS011;49297;43.210;27.914;2022-09-03T02:51:57;4.60;;;3.22;;
63203;SDS011;49297;43.210;27.914;2022-09-03T02:54:25;11.18;;;4.20;;
63203;SDS011;49297;43.210;27.914;2022-09-03T02:56:52;6.03;;;3.75;;
63203;SDS011;49297;43.210;27.914;2022-09-03T02:59:18;6.30;;;4.07;;
63203;SDS011;49297;43.210;27.914;2022-09-03T03:01:46;7.40;;;4.45;;
63203;SDS011;49297;43.210;27.914;2022-09-03T03:04:13;6.75;;;3.95;;
63203;SDS011;49297;43.210;27.914;2022-09-03T03:06:39;6.22;;;3.95;;
63203;SDS011;49297;43.210;27.914;2022-09-03T03:09:04;5.57;;;3.80;;
63203;SDS011;49297;43.210;27.914;2022-09-03T03:11:31;6.50;;;4.68;;
63203;SDS011;49297;43.210;27.914;2022-09-03T03:13:57;5.68;;;4.72;;
63203;SDS011;49297;43.210;27.914;2022-09-03T03:16:23;3.78;;;3.47;;
63203;SDS011;49297;43.210;27.914;2022-09-03T03:18:48;6.80;;;4.75;;
63203;SDS011;49297;43.210;27.914;2022-09-03T03:21:15;9.68;;;4.03;;
63203;SDS011;49297;43.210;27.914;2022-09-03T03:23:43;5.35;;;4.03;;
63203;SDS011;49297;43.210;27.914;2022-09-03T03:26:10;9.07;;;4.35;;
63203;SDS011;49297;43.210;27.914;2022-09-03T03:28:38;6.35;;;3.90;;
63203;SDS011;49297;43.210;27.914;2022-09-03T03:33:37;5.45;;;4.00;;
63203;SDS011;49297;43.210;27.914;2022-09-03T03:36:06;6.15;;;3.97;;
63203;SDS011;49297;43.210;27.914;2022-09-03T03:38:36;6.57;;;3.92;;
63203;SDS011;49297;43.210;27.914;2022-09-03T03:41:06;6.43;;;4.00;;
63203;SDS011;49297;43.210;27.914;2022-09-03T03:43:43;4.38;;;3.88;;
63203;SDS011;49297;43.210;27.914;2022-09-03T03:46:09;4.82;;;3.85;;
63203;SDS011;49297;43.210;27.914;2022-09-03T03:48:36;4.63;;;3.78;;
63203;SDS011;49297;43.210;27.914;2022-09-03T03:51:03;3.50;;;3.20;;
63203;SDS011;49297;43.210;27.914;2022-09-03T03:53:32;4.13;;;3.72;;
63203;SDS011;49297;43.210;27.914;2022-09-03T03:56:00;8.25;;;3.78;;
63203;SDS011;49297;43.210;27.914;2022-09-03T03:58:27;4.78;;;4.25;;
63203;SDS011;49297;43.210;27.914;2022-09-03T04:01:02;5.18;;;3.50;;
63203;SDS011;49297;43.210;27.914;2022-09-03T04:03:31;5.38;;;3.47;;
63203;SDS011;49297;43.210;27.914;2022-09-03T04:05:58;6.75;;;4.78;;
63203;SDS011;49297;43.210;27.914;2022-09-03T04:08:25;4.70;;;3.78;;
63203;SDS011;49297;43.210;27.914;2022-09-03T04:10:52;4.72;;;4.30;;
63203;SDS011;49297;43.210;27.914;2022-09-03T04:13:18;5.05;;;3.70;;
63203;SDS011;49297;43.210;27.914;2022-09-03T04:27:52;7.13;;;3.43;;
63203;SDS011;49297;43.210;27.914;2022-09-03T04:32:44;6.90;;;3.00;;
63203;SDS011;49297;43.210;27.914;2022-09-03T04:37:55;3.42;;;3.13;;
63203;SDS011;49297;43.210;27.914;2022-09-03T04:42:47;3.72;;;3.42;;
63203;SDS011;49297;43.210;27.914;2022-09-03T04:45:14;5.93;;;4.50;;
63203;SDS011;49297;43.210;27.914;2022-09-03T04:47:43;8.40;;;4.67;;
63203;SDS011;49297;43.210;27.914;2022-09-03T04:50:11;5.37;;;4.47;;
63203;SDS011;49297;43.210;27.914;2022-09-03T04:52:37;10.50;;;9.43;;
63203;SDS011;49297;43.210;27.914;2022-09-03T04:55:03;7.60;;;6.80;;
63203;SDS011;49297;43.210;27.914;2022-09-03T04:57:29;7.30;;;5.25;;
63203;SDS011;49297;43.210;27.914;2022-09-03T04:59:59;4.32;;;4.03;;
63203;SDS011;49297;43.210;27.914;2022-09-03T05:02:25;6.65;;;4.93;;
63203;SDS011;49297;43.210;27.914;2022-09-03T05:04:51;8.85;;;4.57;;
63203;SDS011;49297;43.210;27.914;2022-09-03T05:07:18;4.35;;;3.65;;
63203;SDS011;49297;43.210;27.914;2022-09-03T05:09:45;6.75;;;4.75;;
63203;SDS011;49297;43.210;27.914;2022-09-03T05:12:11;5.10;;;4.32;;
63203;SDS011;49297;43.210;27.914;2022-09-03T05:14:37;5.07;;;4.68;;
63203;SDS011;49297;43.210;27.914;2022-09-03T05:17:03;4.43;;;3.88;;
63203;SDS011;49297;43.210;27.914;2022-09-03T05:21:55;7.32;;;4.15;;
63203;SDS011;49297;43.210;27.914;2022-09-03T05:24:21;4.78;;;4.38;;
63203;SDS011;49297;43.210;27.914;2022-09-03T05:26:47;5.63;;;4.97;;
63203;SDS011;49297;43.210;27.914;2022-09-03T05:29:13;5.43;;;4.93;;
63203;SDS011;49297;43.210;27.914;2022-09-03T05:34:06;6.43;;;5.82;;
63203;SDS011;49297;43.210;27.914;2022-09-03T05:36:33;10.10;;;6.35;;
63203;SDS011;49297;43.210;27.914;2022-09-03T05:39:00;6.50;;;5.85;;
63203;SDS011;49297;43.210;27.914;2022-09-03T05:41:26;5.70;;;5.30;;
63203;SDS011;49297;43.210;27.914;2022-09-03T05:43:53;7.25;;;5.93;;
63203;SDS011;49297;43.210;27.914;2022-09-03T05:48:57;6.50;;;5.90;;
63203;SDS011;49297;43.210;27.914;2022-09-03T05:51:26;6.93;;;6.20;;
63203;SDS011;49297;43.210;27.914;2022-09-03T05:53:52;9.30;;;6.93;;
63203;SDS011;49297;43.210;27.914;2022-09-03T06:01:17;8.60;;;7.30;;
63203;SDS011;49297;43.210;27.914;2022-09-03T06:03:44;8.35;;;6.93;;
63203;SDS011;49297;43.210;27.914;2022-09-03T06:06:12;8.10;;;7.40;;
63203;SDS011;49297;43.210;27.914;2022-09-03T06:18:24;16.25;;;8.13;;
63203;SDS011;49297;43.210;27.914;2022-09-03T06:20:53;7.47;;;6.90;;
63203;SDS011;49297;43.210;27.914;2022-09-03T06:23:20;10.48;;;8.18;;
63203;SDS011;49297;43.210;27.914;2022-09-03T06:25:46;9.43;;;8.55;;
63203;SDS011;49297;43.210;27.914;2022-09-03T06:28:12;11.23;;;8.70;;
63203;SDS011;49297;43.210;27.914;2022-09-03T06:30:37;11.63;;;7.70;;
63203;SDS011;49297;43.210;27.914;2022-09-03T06:33:03;8.43;;;7.65;;
63203;SDS011;49297;43.210;27.914;2022-09-03T06:35:29;9.63;;;8.63;;
63203;SDS011;49297;43.210;27.914;2022-09-03T06:38:01;8.82;;;7.75;;
63203;SDS011;49297;43.210;27.914;2022-09-03T06:40:27;9.63;;;8.63;;
63203;SDS011;49297;43.210;27.914;2022-09-03T06:42:56;9.63;;;8.70;;
63203;SDS011;49297;43.210;27.914;2022-09-03T06:45:28;13.23;;;9.30;;
63203;SDS011;49297;43.210;27.914;2022-09-03T06:47:54;17.05;;;8.65;;
63203;SDS011;49297;43.210;27.914;2022-09-03T06:50:20;10.70;;;9.43;;
63203;SDS011;49297;43.210;27.914;2022-09-03T06:52:53;9.88;;;8.95;;
63203;SDS011;49297;43.210;27.914;2022-09-03T06:55:20;10.30;;;9.18;;
63203;SDS011;49297;43.210;27.914;2022-09-03T06:57:47;13.38;;;8.73;;
63203;SDS011;49297;43.210;27.914;2022-09-03T07:00:13;9.65;;;8.75;;
63203;SDS011;49297;43.210;27.914;2022-09-03T07:02:39;11.95;;;9.73;;
63203;SDS011;49297;43.210;27.914;2022-09-03T07:05:06;10.23;;;8.55;;
63203;SDS011;49297;43.210;27.914;2022-09-03T07:07:33;11.43;;;10.00;;
63203;SDS011;49297;43.210;27.914;2022-09-03T07:09:58;11.15;;;8.25;;
63203;SDS011;49297;43.210;27.914;2022-09-03T07:12:26;10.98;;;9.93;;
63203;SDS011;49297;43.210;27.914;2022-09-03T07:14:51;14.32;;;9.68;;
63203;SDS011;49297;43.210;27.914;2022-09-03T07:17:17;12.82;;;9.32;;
63203;SDS011;49297;43.210;27.914;2022-09-03T07:19:43;9.63;;;8.68;;
63203;SDS011;49297;43.210;27.914;2022-09-03T07:22:09;9.82;;;8.88;;
63203;SDS011;49297;43.210;27.914;2022-09-03T07:24:35;11.20;;;7.80;;
63203;SDS011;49297;43.210;27.914;2022-09-03T07:27:02;9.43;;;8.45;;
63203;SDS011;49297;43.210;27.914;2022-09-03T07:29:29;12.23;;;8.82;;
63203;SDS011;49297;43.210;27.914;2022-09-03T07:31:55;12.00;;;8.55;;
63203;SDS011;49297;43.210;27.914;2022-09-03T07:34:21;9.52;;;8.63;;
63203;SDS011;49297;43.210;27.914;2022-09-03T07:36:51;10.07;;;9.07;;
63203;SDS011;49297;43.210;27.914;2022-09-03T07:39:18;10.40;;;9.40;;
63203;SDS011;49297;43.210;27.914;2022-09-03T07:41:44;10.10;;;9.25;;
63203;SDS011;49297;43.210;27.914;2022-09-03T07:44:11;11.38;;;8.18;;
63203;SDS011;49297;43.210;27.914;2022-09-03T07:46:39;11.38;;;10.20;;
63203;SDS011;49297;43.210;27.914;2022-09-03T07:49:05;10.30;;;9.30;;
63203;SDS011;49297;43.210;27.914;2022-09-03T07:51:35;10.73;;;9.63;;
63203;SDS011;49297;43.210;27.914;2022-09-03T07:54:06;10.32;;;9.32;;
63203;SDS011;49297;43.210;27.914;2022-09-03T07:56:35;12.38;;;11.02;;
63203;SDS011;49297;43.210;27.914;2022-09-03T07:59:02;11.20;;;10.25;;
63203;SDS011;49297;43.210;27.914;2022-09-03T08:01:29;12.93;;;11.65;;
63203;SDS011;49297;43.210;27.914;2022-09-03T08:03:57;10.85;;;9.93;;
63203;SDS011;49297;43.210;27.914;2022-09-03T08:06:24;28.33;;;10.98;;
63203;SDS011;49297;43.210;27.914;2022-09-03T08:08:54;15.00;;;10.45;;
63203;SDS011;49297;43.210;27.914;2022-09-03T08:11:23;14.30;;;10.77;;
63203;SDS011;49297;43.210;27.914;2022-09-03T08:13:54;10.85;;;9.90;;
63203;SDS011;49297;43.210;27.914;2022-09-03T08:16:34;11.55;;;10.55;;
63203;SDS011;49297;43.210;27.914;2022-09-03T08:19:01;15.95;;;10.85;;
63203;SDS011;49297;43.210;27.914;2022-09-03T08:21:27;10.90;;;9.55;;
63203;SDS011;49297;43.210;27.914;2022-09-03T08:23:54;11.52;;;10.38;;
63203;SDS011;49297;43.210;27.914;2022-09-03T08:26:27;11.77;;;9.60;;
63203;SDS011;49297;43.210;27.914;2022-09-03T08:28:55;11.07;;;10.07;;
63203;SDS011;49297;43.210;27.914;2022-09-03T08:31:22;10.75;;;9.85;;
63203;SDS011;49297;43.210;27.914;2022-09-03T08:33:50;9.90;;;9.05;;
63203;SDS011;49297;43.210;27.914;2022-09-03T08:36:21;10.73;;;9.82;;
63203;SDS011;49297;43.210;27.914;2022-09-03T08:38:52;9.55;;;8.73;;
63203;SDS011;49297;43.210;27.914;2022-09-03T08:47:05;9.50;;;8.32;;
63203;SDS011;49297;43.210;27.914;2022-09-03T08:54:46;8.40;;;7.60;;
63203;SDS011;49297;43.210;27.914;2022-09-03T08:57:14;8.73;;;7.28;;
63203;SDS011;49297;43.210;27.914;2022-09-03T08:59:43;8.18;;;7.47;;
63203;SDS011;49297;43.210;27.914;2022-09-03T09:02:22;9.13;;;7.57;;
63203;SDS011;49297;43.210;27.914;2022-09-03T09:05:17;9.45;;;8.00;;
63203;SDS011;49297;43.210;27.914;2022-09-03T09:13:16;7.05;;;6.35;;
63203;SDS011;49297;43.210;27.914;2022-09-03T09:16:03;8.02;;;7.32;;
63203;SDS011;49297;43.210;27.914;2022-09-03T09:18:49;7.00;;;6.40;;
63203;SDS011;49297;43.210;27.914;2022-09-03T09:21:29;7.55;;;6.78;;
63203;SDS011;49297;43.210;27.914;2022-09-03T09:24:03;7.43;;;6.60;;
63203;SDS011;49297;43.210;27.914;2022-09-03T09:26:36;8.63;;;6.40;;
63203;SDS011;49297;43.210;27.914;2022-09-03T09:29:07;7.82;;;6.55;;
63203;SDS011;49297;43.210;27.914;2022-09-03T09:31:35;9.25;;;7.53;;
63203;SDS011;49297;43.210;27.914;2022-09-03T09:36:53;7.75;;;6.57;;
63203;SDS011;49297;43.210;27.914;2022-09-03T09:39:20;10.50;;;7.82;;
63203;SDS011;49297;43.210;27.914;2022-09-03T09:41:59;12.63;;;7.90;;
63203;SDS011;49297;43.210;27.914;2022-09-03T09:44:36;7.07;;;6.40;;
63203;SDS011;49297;43.210;27.914;2022-09-03T09:47:05;7.57;;;6.82;;
63203;SDS011;49297;43.210;27.914;2022-09-03T09:55:16;12.73;;;6.78;;
63203;SDS011;49297;43.210;27.914;2022-09-03T09:57:44;13.57;;;7.60;;
63203;SDS011;49297;43.210;27.914;2022-09-03T10:00:16;7.38;;;5.70;;
63203;SDS011;49297;43.210;27.914;2022-09-03T10:02:47;7.32;;;6.63;;
63203;SDS011;49297;43.210;27.914;2022-09-03T10:05:20;8.65;;;6.32;;
63203;SDS011;49297;43.210;27.914;2022-09-03T10:08:03;6.05;;;5.60;;
63203;SDS011;49297;43.210;27.914;2022-09-03T10:10:42;6.70;;;6.10;;
63203;SDS011;49297;43.210;27.914;2022-09-03T10:13:17;8.10;;;6.18;;
63203;SDS011;49297;43.210;27.914;2022-09-03T10:26:41;5.90;;;5.40;;
63203;SDS011;49297;43.210;27.914;2022-09-03T10:29:10;10.05;;;6.28;;
63203;SDS011;49297;43.210;27.914;2022-09-03T10:34:47;6.57;;;5.97;;
63203;SDS011;49297;43.210;27.914;2022-09-03T10:37:52;5.88;;;5.38;;
63203;SDS011;49297;43.210;27.914;2022-09-03T10:54:10;5.57;;;5.07;;
63203;SDS011;49297;43.210;27.914;2022-09-03T11:05:20;6.40;;;5.80;;
63203;SDS011;49297;43.210;27.914;2022-09-03T11:08:12;8.10;;;5.70;;
63203;SDS011;49297;43.210;27.914;2022-09-03T11:10:55;6.30;;;5.82;;
63203;SDS011;49297;43.210;27.914;2022-09-03T11:13:37;6.00;;;5.40;;
63203;SDS011;49297;43.210;27.914;2022-09-03T11:16:12;5.20;;;4.70;;
63203;SDS011;49297;43.210;27.914;2022-09-03T11:19:03;9.40;;;4.20;;
63203;SDS011;49297;43.210;27.914;2022-09-03T11:21:31;6.25;;;5.65;;
63203;SDS011;49297;43.210;27.914;2022-09-03T11:26:40;5.85;;;5.35;;
63203;SDS011;49297;43.210;27.914;2022-09-03T11:34:30;4.78;;;4.38;;
63203;SDS011;49297;43.210;27.914;2022-09-03T11:37:15;3.92;;;3.40;;
63203;SDS011;49297;43.210;27.914;2022-09-03T11:39:44;4.72;;;4.32;;
63203;SDS011;49297;43.210;27.914;2022-09-03T11:42:35;5.53;;;5.03;;
63203;SDS011;49297;43.210;27.914;2022-09-03T11:50:33;4.97;;;4.07;;
63203;SDS011;49297;43.210;27.914;2022-09-03T11:53:09;5.85;;;4.55;;
63203;SDS011;49297;43.210;27.914;2022-09-03T11:56:00;4.68;;;4.25;;
63203;SDS011;49297;43.210;27.914;2022-09-03T11:58:30;5.17;;;4.73;;
63203;SDS011;49297;43.210;27.914;2022-09-03T12:01:03;5.80;;;4.72;;
63203;SDS011;49297;43.210;27.914;2022-09-03T12:20:59;5.03;;;4.15;;
63203;SDS011;49297;43.210;27.914;2022-09-03T12:23:31;5.35;;;4.30;;
63203;SDS011;49297;43.210;27.914;2022-09-03T12:26:01;8.10;;;4.90;;
63203;SDS011;49297;43.210;27.914;2022-09-03T12:28:30;4.85;;;4.45;;
63203;SDS011;49297;43.210;27.914;2022-09-03T12:33:50;12.35;;;4.53;;
63203;SDS011;49297;43.210;27.914;2022-09-03T12:44:30;7.03;;;4.57;;
63203;SDS011;49297;43.210;27.914;2022-09-03T12:49:43;5.68;;;4.97;;
63203;SDS011;49297;43.210;27.914;2022-09-03T12:54:52;3.95;;;3.65;;
63203;SDS011;49297;43.210;27.914;2022-09-03T12:57:27;6.20;;;4.25;;
63203;SDS011;49297;43.210;27.914;2022-09-03T12:59:59;4.55;;;4.15;;
63203;SDS011;49297;43.210;27.914;2022-09-03T13:05:21;5.57;;;5.05;;
63203;SDS011;49297;43.210;27.914;2022-09-03T13:07:57;7.30;;;5.03;;
63203;SDS011;49297;43.210;27.914;2022-09-03T13:15:54;4.63;;;4.22;;
63203;SDS011;49297;43.210;27.914;2022-09-03T13:21:37;7.30;;;5.18;;
63203;SDS011;49297;43.210;27.914;2022-09-03T13:29:36;6.47;;;5.40;;
63203;SDS011;49297;43.210;27.914;2022-09-03T13:38:22;6.03;;;5.35;;
63203;SDS011;49297;43.210;27.914;2022-09-03T13:43:32;5.80;;;5.30;;
63203;SDS011;49297;43.210;27.914;2022-09-03T13:52:30;5.60;;;5.07;;
63203;SDS011;49297;43.210;27.914;2022-09-03T13:55:01;5.88;;;5.32;;
63203;SDS011;49297;43.210;27.914;2022-09-03T14:20:07;5.85;;;5.25;;
63203;SDS011;49297;43.210;27.914;2022-09-03T14:23:02;5.85;;;5.20;;
63203;SDS011;49297;43.210;27.914;2022-09-03T14:25:34;4.65;;;4.28;;
63203;SDS011;49297;43.210;27.914;2022-09-03T14:28:26;4.70;;;4.22;;
63203;SDS011;49297;43.210;27.914;2022-09-03T14:50:16;3.33;;;3.05;;
63203;SDS011;49297;43.210;27.914;2022-09-03T15:01:26;2.88;;;2.30;;
63203;SDS011;49297;43.210;27.914;2022-09-03T15:14:45;6.07;;;4.60;;
63203;SDS011;49297;43.210;27.914;2022-09-03T15:28:28;4.97;;;4.57;;
63203;SDS011;49297;43.210;27.914;2022-09-03T15:36:35;5.28;;;4.28;;
63203;SDS011;49297;43.210;27.914;2022-09-03T15:44:42;5.80;;;4.63;;
63203;SDS011;49297;43.210;27.914;2022-09-03T15:47:27;6.78;;;4.68;;
63203;SDS011;49297;43.210;27.914;2022-09-03T15:50:02;5.40;;;4.93;;
63203;SDS011;49297;43.210;27.914;2022-09-03T15:52:51;6.35;;;5.82;;
63203;SDS011;49297;43.210;27.914;2022-09-03T15:55:43;6.68;;;5.93;;
63203;SDS011;49297;43.210;27.914;2022-09-03T16:01:04;5.40;;;5.00;;
63203;SDS011;49297;43.210;27.914;2022-09-03T16:03:46;13.25;;;6.53;;
63203;SDS011;49297;43.210;27.914;2022-09-03T16:06:32;7.32;;;6.63;;
63203;SDS011;49297;43.210;27.914;2022-09-03T16:15:09;6.40;;;5.72;;
63203;SDS011;49297;43.210;27.914;2022-09-03T16:18:00;6.10;;;5.55;;
63203;SDS011;49297;43.210;27.914;2022-09-03T16:20:42;6.53;;;5.93;;
63203;SDS011;49297;43.210;27.914;2022-09-03T16:23:20;7.10;;;6.53;;
63203;SDS011;49297;43.210;27.914;2022-09-03T16:25:54;6.38;;;5.85;;
63203;SDS011;49297;43.210;27.914;2022-09-03T16:28:29;6.28;;;5.78;;
63203;SDS011;49297;43.210;27.914;2022-09-03T16:31:11;6.57;;;6.05;;
63203;SDS011;49297;43.210;27.914;2022-09-03T16:34:41;7.32;;;6.50;;
63203;SDS011;49297;43.210;27.914;2022-09-03T16:42:03;10.70;;;7.03;;
63203;SDS011;49297;43.210;27.914;2022-09-03T16:44:57;6.75;;;6.00;;
63203;SDS011;49297;43.210;27.914;2022-09-03T16:47:37;6.53;;;5.97;;
63203;SDS011;49297;43.210;27.914;2022-09-03T16:50:26;9.18;;;6.97;;
63203;SDS011;49297;43.210;27.914;2022-09-03T16:53:12;6.63;;;6.13;;
63203;SDS011;49297;43.210;27.914;2022-09-03T16:55:57;6.72;;;6.13;;
63203;SDS011;49297;43.210;27.914;2022-09-03T16:58:57;9.60;;;6.23;;
63203;SDS011;49297;43.210;27.914;2022-09-03T17:12:55;6.43;;;5.93;;
63203;SDS011;49297;43.210;27.914;2022-09-03T17:26:50;5.38;;;4.95;;
63203;SDS011;49297;43.210;27.914;2022-09-03T17:29:32;6.38;;;5.78;;
63203;SDS011;49297;43.210;27.914;2022-09-03T17:32:17;6.97;;;6.03;;
63203;SDS011;49297;43.210;27.914;2022-09-03T17:38:19;6.28;;;5.78;;
63203;SDS011;49297;43.210;27.914;2022-09-03T17:49:08;6.65;;;6.03;;
63203;SDS011;49297;43.210;27.914;2022-09-03T17:52:06;6.90;;;6.30;;
63203;SDS011;49297;43.210;27.914;2022-09-03T17:54:53;6.15;;;5.55;;
63203;SDS011;49297;43.210;27.914;2022-09-03T18:02:32;6.90;;;6.22;;
63203;SDS011;49297;43.210;27.914;2022-09-03T18:05:02;5.88;;;5.15;;
63203;SDS011;49297;43.210;27.914;2022-09-03T18:07:57;6.03;;;5.07;;
63203;SDS011;49297;43.210;27.914;2022-09-03T18:16:25;8.07;;;5.45;;
63203;SDS011;49297;43.210;27.914;2022-09-03T18:18:56;5.85;;;5.45;;
63203;SDS011;49297;43.210;27.914;2022-09-03T18:21:24;5.55;;;5.10;;
63203;SDS011;49297;43.210;27.914;2022-09-03T18:27:21;4.70;;;4.30;;
63203;SDS011;49297;43.210;27.914;2022-09-03T18:30:19;6.18;;;5.57;;
63203;SDS011;49297;43.210;27.914;2022-09-03T18:35:47;4.20;;;3.80;;
63203;SDS011;49297;43.210;27.914;2022-09-03T18:45:08;5.60;;;4.90;;
63203;SDS011;49297;43.210;27.914;2022-09-03T18:50:34;4.88;;;4.38;;
63203;SDS011;49297;43.210;27.914;2022-09-03T18:53:37;4.90;;;4.50;;
63203;SDS011;49297;43.210;27.914;2022-09-03T18:56:31;7.32;;;4.32;;
63203;SDS011;49297;43.210;27.914;2022-09-03T19:15:19;6.53;;;6.00;;
63203;SDS011;49297;43.210;27.914;2022-09-03T19:18:09;7.43;;;5.28;;
63203;SDS011;49297;43.210;27.914;2022-09-03T19:21:13;6.63;;;5.95;;
63203;SDS011;49297;43.210;27.914;2022-09-03T19:24:10;6.13;;;5.53;;
63203;SDS011;49297;43.210;27.914;2022-09-03T19:35:46;8.55;;;7.13;;
